Latest Coastal Weather Observations for Robe Airport

IDV60701

Issued at 7:22 am EST Thursday 25 May 2017 (issued every 10 minutes, with the page automatically refreshed every 10 minutes)

About coastal observations | Map of coastal stations | Coastal observations for VIC | Marine services | Other Formats
Station Details ID: 026105 Name: ROBE AIRFIELD Lat: -37.18 Lon: 139.81 Height: 3.0 m
Data from the previous 72 hours. | See also: Recent months at Robe Airport
Date/Time
EST
Temp
°C
Wind Pressure Rain since
9am
mm
Weather Cloud Vis
km
Sea
Height
m
Swell
Dir  Spd
kts
Gust
kts
hPa Trend Height
m
Period
s
Dir
25/07:00am 14.9 NNW 12 18 1018.4 - 0.8 - - - - - - -
25/06:30am 14.8 NNW 10 14 1018.3 - 0.8 - - - - - - -
25/06:00am 14.6 NNW 9 13 1018.3 - 0.8 - - - - - - -
25/05:30am 12.7 N 7 9 1018.3 - 0.8 - - - - - - -
25/05:00am 11.8 N 5 6 1018.2 - 0.8 - - - - - - -
25/04:30am 13.6 NW 7 11 1018.2 - 0.8 - - - - - - -
25/04:00am 13.4 WNW 6 9 1018.3 - 0.8 - - - - - - -
25/03:30am 14.1 WNW 5 6 1018.6 - 0.0 - - - - - - -
25/03:00am 14.9 NW 4 5 1018.6 - 0.0 - - - - - - -
25/02:30am 15.3 NW 8 11 1018.7 - 0.0 - - - - - - -
25/02:00am 15.3 NW 6 10 1018.6 - 0.0 - - - - - - -
25/01:30am 15.4 WNW 10 16 1018.9 - 0.0 - - - - - - -
25/01:00am 15.3 NW 10 13 1019.1 - 0.0 - - - - - - -
25/12:30am 15.1 NNW 6 8 1019.2 - 0.0 - - - - - - -
25/12:00am 15.2 NW 6 8 1019.5 - 0.0 - - - - - - -
 
Date/Time
EST
Temp
°C
Wind Pressure Rain since
9am
mm
Weather Cloud Vis
km
Sea
Height
m
Swell
Dir  Spd
kts
Gust
kts
hPa Trend Height
m
Period
s
Dir
24/11:30pm 15.4 NW 8 12 1019.6 - 0.0 - - - - - - -
24/11:00pm 15.1 WNW 4 5 1019.7 - 0.0 - - - - - - -
24/10:30pm 15.1 WNW 5 8 1019.8 - 0.0 - - - - - - -
24/10:00pm 15.0 WNW 4 6 1020.0 - 0.0 - - - - - - -
24/09:30pm 15.1 WNW 6 9 1020.0 - 0.0 - - - - - - -
24/09:00pm 15.0 WNW 6 8 1020.2 - 0.0 - - - - - - -
24/08:30pm 14.5 W 3 5 1020.3 - 0.0 - - - - - - -
24/08:00pm 13.4 W 1 1 1020.2 - 0.0 - - - - - - -
24/07:30pm 14.0 W 2 2 1020.0 - 0.0 - - - - - - -
24/07:00pm 14.3 W 2 3 1019.9 - 0.0 - - - - - - -
24/06:30pm 14.7 W 3 6 1019.8 - 0.0 - - - - - - -
24/06:00pm 14.3 WSW 3 5 1019.7 - 0.0 - - - - - - -
24/05:30pm 14.4 WNW 3 4 1019.6 - 0.0 - - - - - - -
24/05:00pm 15.1 W 4 8 1019.5 - 0.0 - - - - - - -
24/04:30pm 15.5 W 6 9 1019.4 - 0.0 - - - - - - -
24/04:00pm 15.8 WSW 4 6 1019.2 - 0.0 - - - - - - -
24/03:30pm 15.6 W 7 13 1019.1 - 0.0 - - - - - - -
24/03:00pm 15.5 WSW 6 10 1018.9 - 0.0 - - - - - - -
24/02:30pm 15.5 WSW 6 10 1018.6 - 0.0 - - - - - - -
24/02:00pm 15.6 W 9 14 1018.6 - 0.0 - - - - - - -
24/01:30pm 15.1 WSW 9 14 1018.7 - 0.0 - - - - - - -
24/01:00pm 16.0 WSW 6 12 1018.5 - 0.0 - - - - - - -
24/12:30pm 15.9 WSW 8 13 1018.7 - 0.0 - - - - - - -
24/12:00pm 15.6 WSW 7 12 1018.9 - 0.0 - - - - - - -
24/11:30am 15.7 WSW 8 15 1019.0 - 0.0 - - - - - - -
24/11:00am 16.2 WSW 7 12 1018.8 - 0.0 - - - - - - -
24/10:30am 15.3 SW 8 13 1018.6 - 0.0 - - - - - - -
24/10:00am 15.9 W 7 12 1018.1 - 0.0 - - - - - - -
24/09:30am 15.3 WSW 7 12 1018.0 - 5.2 - - - - - - -
24/09:00am 14.6 W 6 11 1017.8 - 5.2 - - - - - - -
24/08:30am 14.3 WSW 7 13 1017.5 - 5.2 - - - - - - -
24/08:00am 13.6 WSW 7 13 1017.0 - 5.2 - - - - - - -
24/07:30am 13.3 WSW 7 12 1016.6 - 5.2 - - - - - - -
24/07:00am 13.3 WSW 6 10 1016.2 - 5.2 - - - - - - -
24/06:30am 13.9 WSW 8 15 1016.0 - 5.2 - - - - - - -
24/06:00am 13.3 WSW 8 15 1015.7 - 5.2 - - - - - - -
24/05:30am 13.2 WSW 8 15 1015.1 - 5.2 - - - - - - -
24/05:00am 13.7 WSW 9 16 1014.7 - 5.2 - - - - - - -
24/04:30am 13.6 WSW 10 20 1014.5 - 5.2 - - - - - - -
24/04:00am 13.9 WSW 12 22 1014.2 - 5.2 - - - - - - -
24/03:30am 13.6 WSW 12 23 1014.0 - 5.2 - - - - - - -
24/03:00am 14.4 W 11 19 1013.5 - 5.2 - - - - - - -
24/02:30am 14.2 WSW 10 18 1013.3 - 5.2 - - - - - - -
24/02:00am 14.3 W 10 16 1013.2 - 5.2 - - - - - - -
24/01:30am 13.9 W 8 14 1013.3 - 5.2 - - - - - - -
24/01:00am 13.2 WSW 7 13 1013.2 - 5.2 - - - - - - -
24/12:30am 13.2 W 7 12 1013.2 - 4.8 Recent precip. - - - - - -
24/12:09am 13.3 WNW 15 24 1013.2 - 4.6 - - - - - - -
24/12:00am 14.3 WNW 7 13 1013.2 - 3.6 - - - - - - -
 
Date/Time
EST
Temp
°C
Wind Pressure Rain since
9am
mm
Weather Cloud Vis
km
Sea
Height
m
Swell
Dir  Spd
kts
Gust
kts
hPa Trend Height
m
Period
s
Dir
23/11:30pm 13.4 WNW 6 9 1013.2 - 3.2 - - - - - - -
23/11:00pm 14.1 WNW 6 9 1013.2 - 3.0 - - - - - - -
23/10:30pm 13.7 WNW 8 10 1013.3 - 3.0 - - - - - - -
23/10:00pm 13.5 WNW 11 17 1013.1 - 3.0 - - - - - - -
23/09:30pm 13.3 WNW 11 18 1013.0 - 3.0 Recent precip. - - - - - -
23/09:00pm 13.4 WNW 6 11 1012.9 - 2.8 - - - - - - -
23/08:30pm 12.9 NW 5 8 1013.0 - 2.8 - - - - - - -
23/08:00pm 12.7 NW 5 9 1012.9 - 2.8 - - - - - - -
23/07:30pm 12.5 NNW 7 9 1013.0 - 2.8 - - - - - - -
23/07:00pm 12.8 NW 10 16 1012.7 - 2.8 - - - - - - -
23/06:30pm 13.3 NW 13 17 1012.8 - 2.2 Rain - - - - - -
23/06:00pm 13.4 NNW 12 17 1012.5 - 0.6 - - - - - - -
23/05:30pm 13.7 NNW 15 21 1012.6 - 0.6 - - - - - - -
23/05:00pm 14.2 NNW 16 23 1012.3 - 0.6 - - - - - - -
23/04:30pm 14.4 NNW 13 18 1012.3 - 0.4 - - - - - - -
23/04:00pm 14.6 NNW 15 20 1012.4 - 0.4 - - - - - - -
23/03:30pm 14.7 NNW 16 22 1012.5 - 0.4 Recent precip. - - - - - -
23/03:05pm 14.5 NNW 15 27 1012.8 - 0.2 - - - - - - -
23/03:00pm 15.3 NNW 14 19 1012.6 - 0.2 - - - - - - -
23/02:30pm 16.2 NNW 17 24 1012.8 - 0.0 - - - - - - -
23/02:00pm 16.8 NNW 16 21 1012.9 - 0.0 - - - - - - -
23/01:30pm 17.6 NNW 14 20 1013.3 - 0.0 - - - - - - -
23/01:00pm 16.9 NNW 14 19 1013.8 - 0.0 - - - - - - -
23/12:30pm 17.1 NNW 13 18 1014.2 - 0.0 - - - - - - -
23/12:00pm 17.3 NNW 13 17 1014.6 - 0.0 - - - - - - -
23/11:30am 17.3 NNW 14 17 1015.2 - 0.0 - - - - - - -
23/11:00am 16.9 NNW 11 16 1015.3 - 0.0 - - - - - - -
23/10:30am 16.9 NNW 8 11 1015.5 - 0.0 - - - - - - -
23/10:00am 15.1 N 6 8 1015.6 - 0.0 - - - - - - -
23/09:30am 12.8 N 4 6 1015.6 - 2.6 - - - - - - -
23/09:00am 11.3 N 4 6 1015.6 - 2.6 - - - - - - -
23/08:30am 9.7 N 4 5 1015.6 - 2.6 - - - - - - -
23/08:00am 8.9 N 4 5 1015.6 - 2.6 - - - - - - -
23/07:30am 9.7 N 4 5 1015.5 - 2.6 - - - - - - -
23/07:00am 9.8 N 3 5 1015.2 - 2.6 - - - - - - -
23/06:30am 9.7 N 4 5 1014.9 - 2.6 - - - - - - -
23/06:00am 8.4 NNW 2 4 1014.7 - 2.6 - - - - - - -
23/05:30am 9.4 WNW 2 2 1014.6 - 2.6 - - - - - - -
23/05:00am 11.5 WNW 1 3 1014.6 - 2.6 - - - - - - -
23/04:30am 12.7 WNW 3 3 1014.7 - 2.6 - - - - - - -
23/04:00am 12.9 WNW 3 5 1014.7 - 2.6 - - - - - - -
23/03:30am 13.3 WNW 5 7 1014.6 - 2.6 - - - - - - -
23/03:00am 13.3 WNW 4 6 1014.7 - 2.6 - - - - - - -
23/02:30am 13.6 WNW 4 6 1014.5 - 2.6 - - - - - - -
23/02:00am 14.0 WNW 4 7 1014.6 - 2.6 - - - - - - -
23/01:30am 14.9 NW 3 5 1014.5 - 2.6 - - - - - - -
23/01:00am 14.9 WNW 5 6 1014.3 - 2.6 - - - - - - -
23/12:30am 15.3 NW 5 7 1014.5 - 2.6 - - - - - - -
23/12:00am 14.9 WNW 5 8 1014.2 - 2.6 - - - - - - -
 
Date/Time
EST
Temp
°C
Wind Pressure Rain since
9am
mm
Weather Cloud Vis
km
Sea
Height
m
Swell
Dir  Spd
kts
Gust
kts
hPa Trend Height
m
Period
s
Dir
22/11:30pm 15.6 WNW 7 11 1014.0 - 2.6 - - - - - - -
22/11:00pm 15.3 N 11 20 1014.1 - 2.6 - - - - - - -
22/10:30pm 14.8 N 11 15 1013.7 - 2.6 - - - - - - -
22/10:00pm 14.8 N 12 16 1013.8 - 2.6 - - - - - - -
22/09:30pm 14.8 N 11 15 1013.8 - 2.6 Rain - - - - - -
22/09:00pm 14.8 N 12 17 1013.3 - 2.4 - - - - - - -
22/08:30pm 14.9 N 10 15 1013.4 - 2.2 - - - - - - -
22/08:00pm 15.1 NNW 8 11 1014.2 - 1.0 - - - - - - -
22/07:30pm 15.6 NNW 8 11 1013.4 - 0.4 - - - - - - -
22/07:00pm 16.8 N 10 15 1012.9 - 0.2 - - - - - - -
22/06:30pm 17.0 N 14 19 1012.6 - 0.2 - - - - - - -
22/06:00pm 16.2 N 10 15 1012.2 - 0.2 - - - - - - -
22/05:30pm 15.6 N 8 10 1012.2 - 0.2 - - - - - - -
22/05:00pm 15.8 NNE 10 14 1011.7 - 0.0 - - - - - - -
22/04:30pm 16.7 NNE 12 18 1010.2 - 0.0 - - - - - - -
22/04:00pm 18.5 N 15 21 1011.0 - 0.0 - - - - - - -
22/03:30pm 18.1 N 15 20 1011.3 - 0.0 - - - - - - -
22/03:00pm 17.6 N 16 22 1011.9 - 0.0 - - - - - - -
22/02:45pm 19.0 N 15 25 1012.0 - 0.0 - - - - - - -
22/02:30pm 19.6 N 15 19 1011.5 - 0.0 - - - - - - -
22/02:00pm 19.7 N 16 22 1011.8 - 0.0 - - - - - - -
22/01:30pm 19.9 N 15 22 1012.3 - 0.0 - - - - - - -
22/01:00pm 19.6 NNE 13 20 1011.4 - 0.0 - - - - - - -
22/12:33pm 19.9 N 17 28 1013.0 - 0.0 - - - - - - -
22/12:30pm 20.0 N 15 23 1013.1 - 0.0 - - - - - - -
22/12:24pm 20.1 N 16 26 1013.2 - 0.0 - - - - - - -
22/12:00pm 20.1 N 18 26 1013.3 - 0.0 - - - - - - -
22/11:30am 19.3 N 19 27 1014.0 - 0.0 - - - - - - -
22/11:04am 18.6 N 19 29 1014.6 - 0.0 - - - - - - -
22/11:00am 18.4 N 20 29 1014.6 - 0.0 - - - - - - -
22/10:59am 18.6 N 19 29 1014.7 - 0.0 - - - - - - -
22/10:30am 15.7 N 13 19 1015.1 - 0.0 - - - - - - -
22/10:00am 16.1 N 14 18 1015.2 - 0.0 - - - - - - -
22/09:30am 14.2 NNE 14 17 1014.5 - 0.2 - - - - - - -
22/09:00am 14.0 NNE 14 19 1014.9 - 0.2 - - - - - - -
22/08:30am 12.9 NNE 13 18 1014.8 - 0.2 - - - - - - -
22/08:00am 11.9 NNE 12 16 1014.8 - 0.2 - - - - - - -

Other Formats:

Comma delimited format used in spreadsheet applications
http://www.bom.gov.au/fwo/IDV60701/IDV60701.95816.axf

JavaScript Object Notation format (JSON) in row-major order
http://www.bom.gov.au/fwo/IDV60701/IDV60701.95816.json